Lehigh Valley, Pennsylvania
Current Conditions -  °F | °C
As of 9:51 AM on Wednesday 26 Nov 2014 (Local Time) from KABE Reporting Station
Light Snow Light Snow  
Wind Chill: 34°   Ceiling: 500
Heat Index: 34°   Visibility: 0.75mi
Dew Point: 31°   Wind: 3mph
Humidity: 89%   Direction: 90°E
Pressure: 30.13"   Gusts: NA
Location:  40.65°N, 75.44°W
Report Text: KABE 261451Z 09003KT 3/4SM -SN BR BKN005 OVC013 01/M01 A3013 RMK AO2 RAE03SNB03 SLP208 P0015 60024 T00111006 52009
Loading
Personal Weather Stations






























Interactive Weather Map New forecast layout! Learn more

10-Day Weather Forecast

Advertisements
Track Severe Weather on mobile